sensor_id;sensor_type;location;lat;lon;timestamp;P1;durP1;ratioP1;P2;durP2;ratioP2
52106;SDS011;38105;52.968;5.974;2022-10-16T00:01:25;7.75;;;1.20;;
52106;SDS011;38105;52.968;5.974;2022-10-16T00:03:59;7.13;;;1.33;;
52106;SDS011;38105;52.968;5.974;2022-10-16T00:06:26;8.07;;;1.60;;
52106;SDS011;38105;52.968;5.974;2022-10-16T00:08:52;7.88;;;1.10;;
52106;SDS011;38105;52.968;5.974;2022-10-16T00:11:22;8.02;;;1.35;;
52106;SDS011;38105;52.968;5.974;2022-10-16T00:13:56;9.52;;;1.25;;
52106;SDS011;38105;52.968;5.974;2022-10-16T00:16:27;6.28;;;1.30;;
52106;SDS011;38105;52.968;5.974;2022-10-16T00:18:59;13.27;;;1.80;;
52106;SDS011;38105;52.968;5.974;2022-10-16T00:21:28;10.32;;;1.10;;
52106;SDS011;38105;52.968;5.974;2022-10-16T00:24:02;8.50;;;1.50;;
52106;SDS011;38105;52.968;5.974;2022-10-16T00:26:31;12.02;;;1.55;;
52106;SDS011;38105;52.968;5.974;2022-10-16T00:28:58;6.95;;;1.33;;
52106;SDS011;38105;52.968;5.974;2022-10-16T00:31:25;9.85;;;1.35;;
52106;SDS011;38105;52.968;5.974;2022-10-16T00:33:53;9.65;;;1.40;;
52106;SDS011;38105;52.968;5.974;2022-10-16T00:36:20;7.85;;;1.40;;
52106;SDS011;38105;52.968;5.974;2022-10-16T00:38:57;6.28;;;1.50;;
52106;SDS011;38105;52.968;5.974;2022-10-16T00:41:28;10.93;;;2.15;;
52106;SDS011;38105;52.968;5.974;2022-10-16T00:44:40;7.80;;;1.48;;
52106;SDS011;38105;52.968;5.974;2022-10-16T00:47:03;8.30;;;1.20;;
52106;SDS011;38105;52.968;5.974;2022-10-16T00:49:34;10.15;;;1.70;;
52106;SDS011;38105;52.968;5.974;2022-10-16T00:52:04;8.48;;;1.00;;
52106;SDS011;38105;52.968;5.974;2022-10-16T00:54:33;3.72;;;1.17;;
52106;SDS011;38105;52.968;5.974;2022-10-16T00:57:06;5.63;;;1.23;;
52106;SDS011;38105;52.968;5.974;2022-10-16T00:59:35;6.53;;;1.30;;
52106;SDS011;38105;52.968;5.974;2022-10-16T01:02:04;6.20;;;1.33;;
52106;SDS011;38105;52.968;5.974;2022-10-16T01:04:32;7.82;;;1.42;;
52106;SDS011;38105;52.968;5.974;2022-10-16T01:12:57;9.07;;;1.35;;
52106;SDS011;38105;52.968;5.974;2022-10-16T01:18:18;8.68;;;1.98;;
52106;SDS011;38105;52.968;5.974;2022-10-16T01:20:54;6.75;;;1.40;;
52106;SDS011;38105;52.968;5.974;2022-10-16T01:29:30;11.10;;;1.70;;
52106;SDS011;38105;52.968;5.974;2022-10-16T01:37:58;6.70;;;1.35;;
52106;SDS011;38105;52.968;5.974;2022-10-16T01:40:41;6.15;;;1.40;;
52106;SDS011;38105;52.968;5.974;2022-10-16T01:43:19;6.68;;;1.63;;
52106;SDS011;38105;52.968;5.974;2022-10-16T01:45:48;7.68;;;1.55;;
52106;SDS011;38105;52.968;5.974;2022-10-16T01:48:18;6.78;;;1.42;;
52106;SDS011;38105;52.968;5.974;2022-10-16T01:50:51;7.55;;;1.73;;
52106;SDS011;38105;52.968;5.974;2022-10-16T01:53:24;6.75;;;1.50;;
52106;SDS011;38105;52.968;5.974;2022-10-16T01:55:51;4.60;;;1.33;;
52106;SDS011;38105;52.968;5.974;2022-10-16T01:58:19;7.03;;;1.67;;
52106;SDS011;38105;52.968;5.974;2022-10-16T02:00:48;10.18;;;2.25;;
52106;SDS011;38105;52.968;5.974;2022-10-16T02:03:18;8.50;;;1.70;;
52106;SDS011;38105;52.968;5.974;2022-10-16T02:08:14;5.20;;;1.55;;
52106;SDS011;38105;52.968;5.974;2022-10-16T02:10:40;6.18;;;1.60;;
52106;SDS011;38105;52.968;5.974;2022-10-16T02:13:13;8.20;;;1.50;;
52106;SDS011;38105;52.968;5.974;2022-10-16T02:15:47;4.65;;;1.65;;
52106;SDS011;38105;52.968;5.974;2022-10-16T02:18:13;5.75;;;1.70;;
52106;SDS011;38105;52.968;5.974;2022-10-16T02:20:45;7.72;;;1.63;;
52106;SDS011;38105;52.968;5.974;2022-10-16T02:23:19;6.43;;;1.67;;
52106;SDS011;38105;52.968;5.974;2022-10-16T02:26:03;6.68;;;1.50;;
52106;SDS011;38105;52.968;5.974;2022-10-16T02:28:35;7.22;;;1.60;;
52106;SDS011;38105;52.968;5.974;2022-10-16T02:31:08;8.65;;;1.80;;
52106;SDS011;38105;52.968;5.974;2022-10-16T02:33:38;5.65;;;1.70;;
52106;SDS011;38105;52.968;5.974;2022-10-16T02:36:06;3.92;;;1.40;;
52106;SDS011;38105;52.968;5.974;2022-10-16T02:38:38;5.63;;;1.30;;
52106;SDS011;38105;52.968;5.974;2022-10-16T02:41:08;9.27;;;1.70;;
52106;SDS011;38105;52.968;5.974;2022-10-16T02:43:34;9.30;;;1.75;;
52106;SDS011;38105;52.968;5.974;2022-10-16T02:46:00;5.57;;;1.70;;
52106;SDS011;38105;52.968;5.974;2022-10-16T02:48:31;11.05;;;2.22;;
52106;SDS011;38105;52.968;5.974;2022-10-16T02:51:00;3.88;;;1.20;;
52106;SDS011;38105;52.968;5.974;2022-10-16T02:53:28;7.47;;;1.42;;
52106;SDS011;38105;52.968;5.974;2022-10-16T02:55:54;9.25;;;1.80;;
52106;SDS011;38105;52.968;5.974;2022-10-16T02:58:22;5.57;;;1.40;;
52106;SDS011;38105;52.968;5.974;2022-10-16T03:00:48;5.65;;;1.40;;
52106;SDS011;38105;52.968;5.974;2022-10-16T03:03:16;6.72;;;1.52;;
52106;SDS011;38105;52.968;5.974;2022-10-16T03:05:47;4.78;;;1.52;;
52106;SDS011;38105;52.968;5.974;2022-10-16T03:08:18;5.97;;;1.70;;
52106;SDS011;38105;52.968;5.974;2022-10-16T03:10:48;5.32;;;1.45;;
52106;SDS011;38105;52.968;5.974;2022-10-16T03:13:17;5.70;;;1.58;;
52106;SDS011;38105;52.968;5.974;2022-10-16T03:15:45;3.78;;;1.23;;
52106;SDS011;38105;52.968;5.974;2022-10-16T03:18:16;5.63;;;1.67;;
52106;SDS011;38105;52.968;5.974;2022-10-16T03:20:45;6.43;;;1.52;;
52106;SDS011;38105;52.968;5.974;2022-10-16T03:23:14;7.43;;;1.70;;
52106;SDS011;38105;52.968;5.974;2022-10-16T03:25:40;6.65;;;1.50;;
52106;SDS011;38105;52.968;5.974;2022-10-16T03:28:08;6.93;;;1.73;;
52106;SDS011;38105;52.968;5.974;2022-10-16T03:30:37;3.88;;;1.40;;
52106;SDS011;38105;52.968;5.974;2022-10-16T03:33:06;9.13;;;1.85;;
52106;SDS011;38105;52.968;5.974;2022-10-16T03:35:34;4.30;;;1.40;;
52106;SDS011;38105;52.968;5.974;2022-10-16T03:38:02;4.65;;;1.30;;
52106;SDS011;38105;52.968;5.974;2022-10-16T03:40:28;5.35;;;1.50;;
52106;SDS011;38105;52.968;5.974;2022-10-16T03:42:57;4.63;;;1.50;;
52106;SDS011;38105;52.968;5.974;2022-10-16T03:45:23;6.80;;;1.55;;
52106;SDS011;38105;52.968;5.974;2022-10-16T03:47:49;5.90;;;1.60;;
52106;SDS011;38105;52.968;5.974;2022-10-16T03:50:20;7.20;;;1.90;;
52106;SDS011;38105;52.968;5.974;2022-10-16T03:52:52;7.00;;;1.45;;
52106;SDS011;38105;52.968;5.974;2022-10-16T03:55:22;5.13;;;1.45;;
52106;SDS011;38105;52.968;5.974;2022-10-16T03:57:50;5.57;;;1.27;;
52106;SDS011;38105;52.968;5.974;2022-10-16T04:00:22;6.45;;;1.30;;
52106;SDS011;38105;52.968;5.974;2022-10-16T04:02:47;7.32;;;2.00;;
52106;SDS011;38105;52.968;5.974;2022-10-16T04:05:13;8.43;;;1.30;;
52106;SDS011;38105;52.968;5.974;2022-10-16T04:07:42;6.28;;;1.33;;
52106;SDS011;38105;52.968;5.974;2022-10-16T04:10:16;5.97;;;1.40;;
52106;SDS011;38105;52.968;5.974;2022-10-16T04:12:45;5.22;;;1.10;;
52106;SDS011;38105;52.968;5.974;2022-10-16T04:15:13;5.05;;;1.65;;
52106;SDS011;38105;52.968;5.974;2022-10-16T04:17:39;5.20;;;1.50;;
52106;SDS011;38105;52.968;5.974;2022-10-16T04:20:09;6.43;;;1.70;;
52106;SDS011;38105;52.968;5.974;2022-10-16T04:22:37;4.95;;;1.70;;
52106;SDS011;38105;52.968;5.974;2022-10-16T04:25:06;8.43;;;1.52;;
52106;SDS011;38105;52.968;5.974;2022-10-16T04:27:36;5.15;;;1.65;;
52106;SDS011;38105;52.968;5.974;2022-10-16T04:30:04;4.15;;;1.70;;
52106;SDS011;38105;52.968;5.974;2022-10-16T04:32:33;8.07;;;1.65;;
52106;SDS011;38105;52.968;5.974;2022-10-16T04:35:02;3.88;;;1.80;;
52106;SDS011;38105;52.968;5.974;2022-10-16T04:37:29;4.60;;;1.63;;
52106;SDS011;38105;52.968;5.974;2022-10-16T04:39:54;5.20;;;1.60;;
52106;SDS011;38105;52.968;5.974;2022-10-16T04:42:20;8.50;;;1.83;;
52106;SDS011;38105;52.968;5.974;2022-10-16T04:44:46;7.13;;;1.98;;
52106;SDS011;38105;52.968;5.974;2022-10-16T04:47:12;4.82;;;1.98;;
52106;SDS011;38105;52.968;5.974;2022-10-16T04:49:46;8.82;;;2.20;;
52106;SDS011;38105;52.968;5.974;2022-10-16T04:52:15;5.00;;;2.10;;
52106;SDS011;38105;52.968;5.974;2022-10-16T04:54:46;12.05;;;2.50;;
52106;SDS011;38105;52.968;5.974;2022-10-16T04:57:12;6.13;;;2.35;;
52106;SDS011;38105;52.968;5.974;2022-10-16T04:59:38;8.30;;;2.17;;
52106;SDS011;38105;52.968;5.974;2022-10-16T05:02:06;7.22;;;2.30;;
52106;SDS011;38105;52.968;5.974;2022-10-16T05:04:37;7.88;;;3.05;;
52106;SDS011;38105;52.968;5.974;2022-10-16T05:07:03;7.20;;;2.40;;
52106;SDS011;38105;52.968;5.974;2022-10-16T05:09:31;6.40;;;2.35;;
52106;SDS011;38105;52.968;5.974;2022-10-16T05:11:59;6.25;;;2.42;;
52106;SDS011;38105;52.968;5.974;2022-10-16T05:14:28;5.53;;;2.45;;
52106;SDS011;38105;52.968;5.974;2022-10-16T05:17:02;7.47;;;2.42;;
52106;SDS011;38105;52.968;5.974;2022-10-16T05:19:31;10.18;;;2.50;;
52106;SDS011;38105;52.968;5.974;2022-10-16T05:21:57;8.43;;;2.78;;
52106;SDS011;38105;52.968;5.974;2022-10-16T05:24:23;6.85;;;2.47;;
52106;SDS011;38105;52.968;5.974;2022-10-16T05:26:54;5.57;;;2.58;;
52106;SDS011;38105;52.968;5.974;2022-10-16T05:29:20;5.68;;;3.10;;
52106;SDS011;38105;52.968;5.974;2022-10-16T05:31:46;7.22;;;2.97;;
52106;SDS011;38105;52.968;5.974;2022-10-16T05:34:14;6.47;;;2.85;;
52106;SDS011;38105;52.968;5.974;2022-10-16T05:36:40;7.70;;;2.92;;
52106;SDS011;38105;52.968;5.974;2022-10-16T05:39:09;5.38;;;2.60;;
52106;SDS011;38105;52.968;5.974;2022-10-16T05:41:35;7.20;;;2.67;;
52106;SDS011;38105;52.968;5.974;2022-10-16T05:44:09;10.38;;;2.78;;
52106;SDS011;38105;52.968;5.974;2022-10-16T05:46:39;9.02;;;2.97;;
52106;SDS011;38105;52.968;5.974;2022-10-16T05:49:10;5.70;;;2.70;;
52106;SDS011;38105;52.968;5.974;2022-10-16T05:51:45;8.00;;;2.90;;
52106;SDS011;38105;52.968;5.974;2022-10-16T05:54:17;8.70;;;2.80;;
52106;SDS011;38105;52.968;5.974;2022-10-16T05:56:45;7.55;;;2.75;;
52106;SDS011;38105;52.968;5.974;2022-10-16T05:59:13;7.10;;;2.38;;
52106;SDS011;38105;52.968;5.974;2022-10-16T06:01:39;7.57;;;2.58;;
52106;SDS011;38105;52.968;5.974;2022-10-16T06:04:11;7.65;;;2.60;;
52106;SDS011;38105;52.968;5.974;2022-10-16T06:06:40;8.30;;;2.88;;
52106;SDS011;38105;52.968;5.974;2022-10-16T06:09:05;11.18;;;2.65;;
52106;SDS011;38105;52.968;5.974;2022-10-16T06:11:34;8.80;;;2.47;;
52106;SDS011;38105;52.968;5.974;2022-10-16T06:14:04;7.97;;;2.95;;
52106;SDS011;38105;52.968;5.974;2022-10-16T06:16:35;7.55;;;2.65;;
52106;SDS011;38105;52.968;5.974;2022-10-16T06:19:05;6.93;;;2.42;;
52106;SDS011;38105;52.968;5.974;2022-10-16T06:21:34;7.40;;;2.70;;
52106;SDS011;38105;52.968;5.974;2022-10-16T06:24:03;9.50;;;2.50;;
52106;SDS011;38105;52.968;5.974;2022-10-16T06:26:35;7.55;;;2.20;;
52106;SDS011;38105;52.968;5.974;2022-10-16T06:29:07;4.45;;;2.40;;
52106;SDS011;38105;52.968;5.974;2022-10-16T06:31:36;8.10;;;3.17;;
52106;SDS011;38105;52.968;5.974;2022-10-16T06:34:09;9.65;;;2.75;;
52106;SDS011;38105;52.968;5.974;2022-10-16T06:36:38;6.70;;;2.50;;
52106;SDS011;38105;52.968;5.974;2022-10-16T06:39:08;10.65;;;3.22;;
52106;SDS011;38105;52.968;5.974;2022-10-16T06:41:37;7.32;;;2.85;;
52106;SDS011;38105;52.968;5.974;2022-10-16T06:44:10;5.88;;;2.30;;
52106;SDS011;38105;52.968;5.974;2022-10-16T06:46:35;8.38;;;2.53;;
52106;SDS011;38105;52.968;5.974;2022-10-16T06:49:01;7.57;;;2.78;;
52106;SDS011;38105;52.968;5.974;2022-10-16T06:51:27;6.85;;;2.58;;
52106;SDS011;38105;52.968;5.974;2022-10-16T06:53:57;8.95;;;2.63;;
52106;SDS011;38105;52.968;5.974;2022-10-16T06:56:24;7.15;;;2.50;;
52106;SDS011;38105;52.968;5.974;2022-10-16T06:58:53;7.75;;;2.38;;
52106;SDS011;38105;52.968;5.974;2022-10-16T07:01:22;8.98;;;2.45;;
52106;SDS011;38105;52.968;5.974;2022-10-16T07:03:49;7.55;;;2.70;;
52106;SDS011;38105;52.968;5.974;2022-10-16T07:06:18;6.97;;;1.95;;
52106;SDS011;38105;52.968;5.974;2022-10-16T07:08:45;5.53;;;2.00;;
52106;SDS011;38105;52.968;5.974;2022-10-16T07:11:13;8.63;;;2.30;;
52106;SDS011;38105;52.968;5.974;2022-10-16T07:13:44;10.77;;;2.65;;
52106;SDS011;38105;52.968;5.974;2022-10-16T07:16:15;8.23;;;2.63;;
52106;SDS011;38105;52.968;5.974;2022-10-16T07:18:45;9.95;;;2.38;;
52106;SDS011;38105;52.968;5.974;2022-10-16T07:21:14;6.72;;;2.50;;
52106;SDS011;38105;52.968;5.974;2022-10-16T07:23:41;8.27;;;2.60;;
52106;SDS011;38105;52.968;5.974;2022-10-16T07:26:07;8.45;;;2.67;;
52106;SDS011;38105;52.968;5.974;2022-10-16T07:28:33;8.55;;;2.75;;
52106;SDS011;38105;52.968;5.974;2022-10-16T07:31:04;8.25;;;2.15;;
52106;SDS011;38105;52.968;5.974;2022-10-16T07:33:32;5.95;;;2.17;;
52106;SDS011;38105;52.968;5.974;2022-10-16T07:35:58;8.15;;;1.90;;
52106;SDS011;38105;52.968;5.974;2022-10-16T07:38:24;8.68;;;2.10;;
52106;SDS011;38105;52.968;5.974;2022-10-16T07:40:57;7.97;;;2.20;;
52106;SDS011;38105;52.968;5.974;2022-10-16T07:43:33;5.60;;;2.47;;
52106;SDS011;38105;52.968;5.974;2022-10-16T07:46:01;9.10;;;2.15;;
52106;SDS011;38105;52.968;5.974;2022-10-16T07:48:31;7.57;;;1.88;;
52106;SDS011;38105;52.968;5.974;2022-10-16T07:50:58;7.93;;;2.35;;
52106;SDS011;38105;52.968;5.974;2022-10-16T07:53:29;8.43;;;2.03;;
52106;SDS011;38105;52.968;5.974;2022-10-16T07:56:03;6.93;;;1.90;;
52106;SDS011;38105;52.968;5.974;2022-10-16T07:58:30;7.57;;;1.50;;
52106;SDS011;38105;52.968;5.974;2022-10-16T08:00:55;8.30;;;1.40;;
52106;SDS011;38105;52.968;5.974;2022-10-16T08:03:22;9.20;;;1.70;;
52106;SDS011;38105;52.968;5.974;2022-10-16T08:05:51;10.90;;;1.63;;
52106;SDS011;38105;52.968;5.974;2022-10-16T08:08:17;5.22;;;1.30;;
52106;SDS011;38105;52.968;5.974;2022-10-16T08:10:43;6.05;;;1.10;;
52106;SDS011;38105;52.968;5.974;2022-10-16T08:13:09;7.40;;;1.35;;
52106;SDS011;38105;52.968;5.974;2022-10-16T08:15:35;5.78;;;1.20;;
52106;SDS011;38105;52.968;5.974;2022-10-16T08:18:04;6.20;;;1.20;;
52106;SDS011;38105;52.968;5.974;2022-10-16T08:20:31;7.32;;;1.25;;
52106;SDS011;38105;52.968;5.974;2022-10-16T08:23:00;5.00;;;0.82;;
52106;SDS011;38105;52.968;5.974;2022-10-16T08:25:29;5.32;;;1.00;;
52106;SDS011;38105;52.968;5.974;2022-10-16T08:27:58;5.13;;;0.82;;
52106;SDS011;38105;52.968;5.974;2022-10-16T08:30:24;6.65;;;1.17;;
52106;SDS011;38105;52.968;5.974;2022-10-16T08:32:52;6.20;;;1.20;;
52106;SDS011;38105;52.968;5.974;2022-10-16T08:35:23;9.93;;;1.50;;
52106;SDS011;38105;52.968;5.974;2022-10-16T08:37:49;9.43;;;1.45;;
52106;SDS011;38105;52.968;5.974;2022-10-16T08:43:11;6.40;;;1.30;;
52106;SDS011;38105;52.968;5.974;2022-10-16T08:48:30;8.95;;;1.45;;
52106;SDS011;38105;52.968;5.974;2022-10-16T08:51:10;7.93;;;1.77;;
52106;SDS011;38105;52.968;5.974;2022-10-16T08:53:49;9.93;;;1.50;;
52106;SDS011;38105;52.968;5.974;2022-10-16T08:56:25;10.18;;;2.03;;
52106;SDS011;38105;52.968;5.974;2022-10-16T08:58:51;10.50;;;1.75;;
52106;SDS011;38105;52.968;5.974;2022-10-16T09:01:24;8.35;;;1.55;;
52106;SDS011;38105;52.968;5.974;2022-10-16T09:07:43;9.10;;;1.60;;
52106;SDS011;38105;52.968;5.974;2022-10-16T09:18:01;7.65;;;1.48;;
52106;SDS011;38105;52.968;5.974;2022-10-16T09:21:00;8.57;;;1.85;;
52106;SDS011;38105;52.968;5.974;2022-10-16T09:23:42;10.30;;;1.63;;
52106;SDS011;38105;52.968;5.974;2022-10-16T09:26:14;12.25;;;1.50;;
52106;SDS011;38105;52.968;5.974;2022-10-16T09:28:44;11.32;;;2.38;;
52106;SDS011;38105;52.968;5.974;2022-10-16T09:31:28;10.82;;;1.80;;
52106;SDS011;38105;52.968;5.974;2022-10-16T09:34:04;7.53;;;1.42;;
52106;SDS011;38105;52.968;5.974;2022-10-16T09:36:52;11.52;;;1.70;;
52106;SDS011;38105;52.968;5.974;2022-10-16T09:39:22;9.00;;;1.42;;
52106;SDS011;38105;52.968;5.974;2022-10-16T09:41:47;10.13;;;1.92;;
52106;SDS011;38105;52.968;5.974;2022-10-16T09:49:27;12.70;;;2.03;;
52106;SDS011;38105;52.968;5.974;2022-10-16T09:52:04;10.68;;;1.85;;
52106;SDS011;38105;52.968;5.974;2022-10-16T09:54:34;12.65;;;1.85;;
52106;SDS011;38105;52.968;5.974;2022-10-16T09:57:10;13.93;;;2.50;;
52106;SDS011;38105;52.968;5.974;2022-10-16T09:59:48;12.02;;;1.80;;
52106;SDS011;38105;52.968;5.974;2022-10-16T10:02:34;8.93;;;1.80;;
52106;SDS011;38105;52.968;5.974;2022-10-16T10:05:04;13.98;;;1.98;;
52106;SDS011;38105;52.968;5.974;2022-10-16T10:07:46;11.13;;;1.95;;
52106;SDS011;38105;52.968;5.974;2022-10-16T10:10:32;9.23;;;1.85;;
52106;SDS011;38105;52.968;5.974;2022-10-16T10:13:02;9.43;;;1.80;;
52106;SDS011;38105;52.968;5.974;2022-10-16T10:15:51;9.15;;;1.88;;
52106;SDS011;38105;52.968;5.974;2022-10-16T10:18:22;12.63;;;2.22;;
52106;SDS011;38105;52.968;5.974;2022-10-16T10:20:57;12.07;;;2.42;;
52106;SDS011;38105;52.968;5.974;2022-10-16T10:23:25;9.68;;;1.65;;
52106;SDS011;38105;52.968;5.974;2022-10-16T10:26:06;14.85;;;1.90;;
52106;SDS011;38105;52.968;5.974;2022-10-16T10:46:04;13.35;;;2.28;;
52106;SDS011;38105;52.968;5.974;2022-10-16T10:51:58;13.70;;;2.63;;
52106;SDS011;38105;52.968;5.974;2022-10-16T10:55:37;20.83;;;2.90;;
52106;SDS011;38105;52.968;5.974;2022-10-16T10:57:56;14.93;;;2.10;;
52106;SDS011;38105;52.968;5.974;2022-10-16T11:00:42;14.93;;;2.20;;
52106;SDS011;38105;52.968;5.974;2022-10-16T11:06:14;15.65;;;2.65;;
52106;SDS011;38105;52.968;5.974;2022-10-16T11:09:17;13.57;;;2.35;;
52106;SDS011;38105;52.968;5.974;2022-10-16T11:11:52;13.35;;;2.72;;
52106;SDS011;38105;52.968;5.974;2022-10-16T11:14:47;15.48;;;2.50;;
52106;SDS011;38105;52.968;5.974;2022-10-16T11:17:23;14.18;;;2.38;;
52106;SDS011;38105;52.968;5.974;2022-10-16T11:20:03;12.75;;;2.40;;
52106;SDS011;38105;52.968;5.974;2022-10-16T11:22:44;16.48;;;2.80;;
52106;SDS011;38105;52.968;5.974;2022-10-16T11:25:16;16.27;;;2.65;;
52106;SDS011;38105;52.968;5.974;2022-10-16T11:31:03;16.35;;;1.92;;
52106;SDS011;38105;52.968;5.974;2022-10-16T11:33:30;17.70;;;3.03;;
52106;SDS011;38105;52.968;5.974;2022-10-16T11:38:46;17.02;;;2.92;;
52106;SDS011;38105;52.968;5.974;2022-10-16T11:44:14;13.85;;;2.38;;
52106;SDS011;38105;52.968;5.974;2022-10-16T11:47:09;9.68;;;1.83;;
52106;SDS011;38105;52.968;5.974;2022-10-16T11:50:02;15.15;;;1.92;;
52106;SDS011;38105;52.968;5.974;2022-10-16T11:55:27;16.70;;;2.83;;
52106;SDS011;38105;52.968;5.974;2022-10-16T11:58:03;14.77;;;2.15;;
52106;SDS011;38105;52.968;5.974;2022-10-16T12:04:01;14.35;;;2.60;;
52106;SDS011;38105;52.968;5.974;2022-10-16T12:06:25;15.38;;;2.88;;
52106;SDS011;38105;52.968;5.974;2022-10-16T12:09:01;13.38;;;2.28;;
52106;SDS011;38105;52.968;5.974;2022-10-16T12:12:00;10.93;;;2.40;;
52106;SDS011;38105;52.968;5.974;2022-10-16T12:15:01;17.73;;;2.45;;
52106;SDS011;38105;52.968;5.974;2022-10-16T12:17:47;17.13;;;3.13;;
52106;SDS011;38105;52.968;5.974;2022-10-16T12:23:02;14.00;;;2.15;;
52106;SDS011;38105;52.968;5.974;2022-10-16T12:25:31;13.85;;;2.30;;
52106;SDS011;38105;52.968;5.974;2022-10-16T12:30:52;17.58;;;2.83;;
52106;SDS011;38105;52.968;5.974;2022-10-16T12:33:27;15.02;;;2.42;;
52106;SDS011;38105;52.968;5.974;2022-10-16T12:35:59;19.05;;;2.53;;
52106;SDS011;38105;52.968;5.974;2022-10-16T12:38:37;17.42;;;2.97;;
52106;SDS011;38105;52.968;5.974;2022-10-16T12:41:24;12.38;;;2.30;;
52106;SDS011;38105;52.968;5.974;2022-10-16T12:44:05;17.88;;;3.05;;
52106;SDS011;38105;52.968;5.974;2022-10-16T12:46:51;17.85;;;2.88;;
52106;SDS011;38105;52.968;5.974;2022-10-16T12:49:21;11.88;;;2.40;;
52106;SDS011;38105;52.968;5.974;2022-10-16T12:51:59;15.73;;;2.63;;
52106;SDS011;38105;52.968;5.974;2022-10-16T12:54:34;14.48;;;2.22;;
52106;SDS011;38105;52.968;5.974;2022-10-16T13:16:46;14.73;;;2.35;;
52106;SDS011;38105;52.968;5.974;2022-10-16T13:30:00;15.25;;;2.20;;
52106;SDS011;38105;52.968;5.974;2022-10-16T13:32:48;14.77;;;2.50;;
52106;SDS011;38105;52.968;5.974;2022-10-16T13:43:55;13.63;;;2.47;;
52106;SDS011;38105;52.968;5.974;2022-10-16T13:46:23;11.10;;;1.95;;
52106;SDS011;38105;52.968;5.974;2022-10-16T13:49:22;12.02;;;2.05;;
52106;SDS011;38105;52.968;5.974;2022-10-16T13:51:53;15.53;;;2.70;;
52106;SDS011;38105;52.968;5.974;2022-10-16T13:54:23;18.13;;;2.80;;
52106;SDS011;38105;52.968;5.974;2022-10-16T13:56:50;15.68;;;2.00;;
52106;SDS011;38105;52.968;5.974;2022-10-16T13:59:35;11.60;;;2.28;;
52106;SDS011;38105;52.968;5.974;2022-10-16T14:04:53;14.50;;;2.40;;
52106;SDS011;38105;52.968;5.974;2022-10-16T14:07:21;15.20;;;2.25;;
52106;SDS011;38105;52.968;5.974;2022-10-16T14:09:50;12.85;;;2.15;;
52106;SDS011;38105;52.968;5.974;2022-10-16T14:12:17;11.77;;;2.22;;
52106;SDS011;38105;52.968;5.974;2022-10-16T14:14:44;16.50;;;1.98;;
52106;SDS011;38105;52.968;5.974;2022-10-16T14:19:54;12.27;;;2.10;;
52106;SDS011;38105;52.968;5.974;2022-10-16T14:24:59;14.82;;;2.67;;
52106;SDS011;38105;52.968;5.974;2022-10-16T14:30:13;13.20;;;2.30;;
52106;SDS011;38105;52.968;5.974;2022-10-16T14:32:52;15.05;;;3.00;;
52106;SDS011;38105;52.968;5.974;2022-10-16T14:37:54;18.58;;;2.40;;
52106;SDS011;38105;52.968;5.974;2022-10-16T14:40:31;14.90;;;2.30;;
52106;SDS011;38105;52.968;5.974;2022-10-16T14:42:59;15.30;;;2.28;;
52106;SDS011;38105;52.968;5.974;2022-10-16T14:45:27;14.70;;;2.22;;
52106;SDS011;38105;52.968;5.974;2022-10-16T14:47:56;16.38;;;2.78;;
52106;SDS011;38105;52.968;5.974;2022-10-16T14:50:23;17.23;;;2.20;;
52106;SDS011;38105;52.968;5.974;2022-10-16T14:52:50;15.00;;;3.20;;
52106;SDS011;38105;52.968;5.974;2022-10-16T14:55:16;19.05;;;2.63;;
52106;SDS011;38105;52.968;5.974;2022-10-16T14:57:42;13.93;;;2.00;;
52106;SDS011;38105;52.968;5.974;2022-10-16T15:00:10;17.58;;;3.25;;
52106;SDS011;38105;52.968;5.974;2022-10-16T15:02:44;16.40;;;2.38;;
52106;SDS011;38105;52.968;5.974;2022-10-16T15:07:38;15.50;;;2.53;;
52106;SDS011;38105;52.968;5.974;2022-10-16T15:10:04;12.90;;;2.50;;
52106;SDS011;38105;52.968;5.974;2022-10-16T15:12:30;14.68;;;2.28;;
52106;SDS011;38105;52.968;5.974;2022-10-16T15:14:55;14.90;;;2.30;;
52106;SDS011;38105;52.968;5.974;2022-10-16T15:17:21;12.20;;;1.83;;
52106;SDS011;38105;52.968;5.974;2022-10-16T15:19:47;16.08;;;2.63;;
52106;SDS011;38105;52.968;5.974;2022-10-16T15:22:12;18.45;;;2.95;;
52106;SDS011;38105;52.968;5.974;2022-10-16T15:24:38;18.65;;;2.20;;
52106;SDS011;38105;52.968;5.974;2022-10-16T15:27:04;16.27;;;2.45;;
52106;SDS011;38105;52.968;5.974;2022-10-16T15:29:30;12.68;;;2.47;;
52106;SDS011;38105;52.968;5.974;2022-10-16T15:31:56;12.50;;;2.13;;
52106;SDS011;38105;52.968;5.974;2022-10-16T15:34:21;13.52;;;2.10;;
52106;SDS011;38105;52.968;5.974;2022-10-16T15:36:47;15.60;;;2.53;;
52106;SDS011;38105;52.968;5.974;2022-10-16T15:39:13;13.82;;;2.50;;
52106;SDS011;38105;52.968;5.974;2022-10-16T15:41:41;15.98;;;2.30;;
52106;SDS011;38105;52.968;5.974;2022-10-16T15:44:08;15.85;;;2.55;;
52106;SDS011;38105;52.968;5.974;2022-10-16T15:46:34;18.17;;;2.30;;
52106;SDS011;38105;52.968;5.974;2022-10-16T15:49:01;15.65;;;2.08;;
52106;SDS011;38105;52.968;5.974;2022-10-16T15:51:26;19.17;;;2.60;;
52106;SDS011;38105;52.968;5.974;2022-10-16T15:53:55;14.43;;;2.40;;
52106;SDS011;38105;52.968;5.974;2022-10-16T15:56:22;15.23;;;2.50;;
52106;SDS011;38105;52.968;5.974;2022-10-16T15:58:51;18.52;;;2.72;;
52106;SDS011;38105;52.968;5.974;2022-10-16T16:01:17;19.58;;;3.45;;
52106;SDS011;38105;52.968;5.974;2022-10-16T16:03:42;16.20;;;2.70;;
52106;SDS011;38105;52.968;5.974;2022-10-16T16:06:10;12.85;;;2.08;;
52106;SDS011;38105;52.968;5.974;2022-10-16T16:08:37;15.02;;;2.20;;
52106;SDS011;38105;52.968;5.974;2022-10-16T16:11:07;19.58;;;2.55;;
52106;SDS011;38105;52.968;5.974;2022-10-16T16:14:05;17.83;;;3.05;;
52106;SDS011;38105;52.968;5.974;2022-10-16T16:16:37;13.57;;;2.10;;
52106;SDS011;38105;52.968;5.974;2022-10-16T16:19:06;12.63;;;2.00;;
52106;SDS011;38105;52.968;5.974;2022-10-16T16:21:35;18.75;;;2.47;;
52106;SDS011;38105;52.968;5.974;2022-10-16T16:24:01;11.90;;;1.98;;
52106;SDS011;38105;52.968;5.974;2022-10-16T16:26:33;18.52;;;2.33;;
52106;SDS011;38105;52.968;5.974;2022-10-16T16:29:04;14.40;;;2.50;;
52106;SDS011;38105;52.968;5.974;2022-10-16T16:31:31;19.73;;;2.60;;
52106;SDS011;38105;52.968;5.974;2022-10-16T16:34:07;17.27;;;2.38;;
52106;SDS011;38105;52.968;5.974;2022-10-16T16:36:33;20.15;;;2.63;;
52106;SDS011;38105;52.968;5.974;2022-10-16T16:38:59;15.88;;;2.33;;
52106;SDS011;38105;52.968;5.974;2022-10-16T16:41:26;16.75;;;2.10;;
52106;SDS011;38105;52.968;5.974;2022-10-16T16:43:54;17.42;;;2.80;;
52106;SDS011;38105;52.968;5.974;2022-10-16T16:46:20;19.40;;;2.50;;
52106;SDS011;38105;52.968;5.974;2022-10-16T16:48:46;14.43;;;2.22;;
52106;SDS011;38105;52.968;5.974;2022-10-16T16:51:13;12.63;;;2.28;;
52106;SDS011;38105;52.968;5.974;2022-10-16T16:53:44;10.18;;;1.88;;
52106;SDS011;38105;52.968;5.974;2022-10-16T16:56:11;14.68;;;2.33;;
52106;SDS011;38105;52.968;5.974;2022-10-16T16:58:37;16.95;;;2.70;;
52106;SDS011;38105;52.968;5.974;2022-10-16T17:01:03;14.50;;;1.98;;
52106;SDS011;38105;52.968;5.974;2022-10-16T17:03:29;13.50;;;2.20;;
52106;SDS011;38105;52.968;5.974;2022-10-16T17:05:57;14.63;;;2.35;;
52106;SDS011;38105;52.968;5.974;2022-10-16T17:08:31;14.35;;;2.05;;
52106;SDS011;38105;52.968;5.974;2022-10-16T17:10:57;15.38;;;2.22;;
52106;SDS011;38105;52.968;5.974;2022-10-16T17:13:24;16.55;;;2.20;;
52106;SDS011;38105;52.968;5.974;2022-10-16T17:15:51;18.25;;;3.00;;
52106;SDS011;38105;52.968;5.974;2022-10-16T17:18:18;15.10;;;2.35;;
52106;SDS011;38105;52.968;5.974;2022-10-16T17:20:44;13.23;;;1.90;;
52106;SDS011;38105;52.968;5.974;2022-10-16T17:23:11;10.95;;;1.80;;
52106;SDS011;38105;52.968;5.974;2022-10-16T17:25:37;12.90;;;1.85;;
52106;SDS011;38105;52.968;5.974;2022-10-16T17:28:05;11.70;;;1.90;;